Thursday, November 23, 2017, 4:33 AM EST
Back to Local

KNEL, Lakehurst Naval Air Station

Location: Lakehurst, NJ, United States Lat: 40.033
Local Time: 4:33 AM EST ( 9:33 GMT) Lon: -74.317
Time Zone: US/Eastern Elev: 101 ft

Show me the last for .
Show Decoded

2017-11-23 04:00 METAR KNEL 230900Z AUTO 34004KT 10SM CLR M02/M06 A3009 RMK AO2 SLP187 6////
                 T10221061 55000 FZRANO PNO $ =
2017-11-23 03:00 METAR KNEL 230800Z AUTO 30003KT 10SM CLR M01/M06 A3009 RMK AO2 SLP189 T10061061
                 FZRANO PNO $ =
2017-11-23 02:00 METAR KNEL 230700Z AUTO 00000KT 10SM CLR M01/M06 A3009 RMK AO2 SLP188 T10061061
                 FZRANO PNO $ =
2017-11-23 01:00 METAR KNEL 230600Z AUTO 31006KT 10SM CLR 00/M06 A3008 RMK AO2 SLP184 6////
                 T00001056 10056 21006 50007 FZRANO PNO $ =
2017-11-23 00:00 METAR KNEL 230500Z AUTO 31005KT 10SM CLR 00/M04 A3010 RMK AO2 SLP190 T00001044
                 400000000 FZRANO PNO $ =
2017-11-22 23:00 METAR KNEL 230400Z AUTO 33003KT 10SM CLR 01/M05 A3010 RMK AO2 SLP191 T00111050
                 FZRANO PNO $ =
2017-11-22 20:00 METAR KNEL 230100Z AUTO 30010KT 10SM OVC042 04/M03 A3007 RMK AO2 SLP181
                 T00441033 PNO $ =
2017-11-22 19:00 METAR KNEL 230000Z AUTO 32006KT 10SM OVC041 06/M03 A3005 RMK AO2 SLP174 6////
                 T00561028 10128 20056 51031 PNO $ =
2017-11-22 18:00 METAR KNEL 222300Z AUTO 32008G21KT 10SM BKN041 06/M03 A3002 RMK AO2 SLP164
                 T00611028 PNO $ =
2017-11-22 17:00 METAR KNEL 222200Z AUTO 31010G20KT 10SM OVC041 07/M01 A2999 RMK AO2 SLP154
                 T00721011 PNO $ =
2017-11-22 16:00 METAR KNEL 222100Z 31010G19KT 10SM BKN044 08/01 A2995 RMK AO2 SLP142 6////
                 T00830006 53013 PNO $ =
2017-11-22 15:00 METAR KNEL 222000Z 32009G23KT 280V350 10SM BKN060 10/01 A2992 RMK AO2 PK WND
                 30027/1934 SLP132 T01000011 PNO $ =
2017-11-22 14:00 METAR KNEL 221900Z 32010G16KT 290V350 10SM FEW037 SCT047 OVC060 12/04 A2989 RMK
                 AO2 SLP120 T01170039 PNO $ =
2017-11-22 13:00 METAR KNEL 221800Z 31009KT 10SM BKN035 12/06 A2988 RMK AO2 SLP118 6////
                 T01220056 10133 20117 55002 PNO $ =
2017-11-22 12:00 METAR KNEL 221700Z 30006KT 10SM SCT065 OVC100 12/09 A2989 RMK AO2 RAB1626E1638
                 SLP119 T01220089 PNO $ =
2017-11-22 11:06 METAR KNEL 221606Z 32007KT 280V340 10SM FEW009 SCT013 OVC085 12/10 A2988 RMK AO2
                 SLP118 T01220100 PNO $ =
2017-11-22 11:00 METAR KNEL 221600Z 31005KT 10SM FEW009 BKN060 OVC090 12/11 A2989 RMK AO2 PNO $ =
2017-11-22 10:00 METAR KNEL 221500Z 31003KT 9SM FEW011 OVC060 12/11 A2989 RMK AO2 SLP122 6////
                 T01220111 58007 PNO $ =
2017-11-22 09:51 METAR KNEL 221451Z 30007KT 9SM SCT011 OVC055 12/11 A2989 RMK AO2 T01220111 PNO $
                 =
2017-11-22 08:53 METAR KNEL 221353Z 28009KT 10SM BKN007 OVC090 12/12 A2988 RMK AO2 RAE44
                 T01170117 PNO $ =
2017-11-22 08:36 METAR KNEL 221336Z 28005KT 6SM -RA BR FEW007 BKN080 OVC100 12/12 A2988 RMK AO2
                 T01170117 PNO $ =
2017-11-22 07:29 METAR KNEL 221229Z 28005KT 1 3/4SM RA BR SCT015 BKN026 OVC032 11/11 A2991 RMK
                 AO2 TWR VIS 2 1/2 T01110111 PNO $ =
2017-11-22 07:22 METAR KNEL 221222Z AUTO 30005KT 4SM -RA BR SCT015 BKN026 OVC032 11/11 A2991 RMK
                 AO2 T01110111 PNO $ =
2017-11-22 06:00 METAR KNEL 221100Z AUTO 00000KT 9SM -RA SCT038 BKN065 OVC080 12/12 A2990 RMK AO2
                 RAE1013B1042 SLP125 T01170117 PNO $ =
2017-11-22 05:00 METAR KNEL 221000Z AUTO 00000KT 3SM -RA BR FEW070 OVC085 11/11 A2989 RMK AO2
                 RAE0920B0956 PNO $ =
2017-11-22 04:47 METAR KNEL 220947Z AUTO 00000KT 1 3/4SM BR SCT070 OVC095 11/11 A2990 RMK AO2 VIS
                 3/4V4 RAE20 T01060106 PNO $ =

Support USWX by starting your Amazon purchase here.